Time;durP1;ratioP1;P1;durP2;ratioP2;P2;SDS_P1;SDS_P2;PMS_P1;PMS_P2;Temp;Humidity;BMP_temperature;BMP_pressure;BME280_temperature;BME280_humidity;BME280_pressure;Samples;Min_cycle;Max_cycle;Signal;HPM_P1;HPM_P2
2021/12/06 00:00:50;;;;;;;;;;;7.70;63.40;;;;;;5073671;28;19915;-64
2021/12/06 00:03:18;;;;;;;;;;;7.60;63.30;;;;;;5073565;28;19999;-64
2021/12/06 00:05:44;;;;;;;;;;;7.60;63.30;;;;;;5073644;28;19909;-64
2021/12/06 00:08:09;;;;;;;;;;;7.60;63.40;;;;;;5073565;28;19916;-64
2021/12/06 00:10:35;;;;;;;;;;;7.50;63.40;;;;;;5055582;28;19909;-64
2021/12/06 00:13:01;;;;;;;;;;;7.60;63.60;;;;;;5073588;28;19915;-64
2021/12/06 00:15:31;;;;;;;;;;;7.50;63.60;;;;;;5073323;28;20411;-64
2021/12/06 00:17:56;;;;;;;;;;;7.50;63.50;;;;;;5073398;28;19912;-64
2021/12/06 00:20:22;;;;;;;;;;;7.50;63.50;;;;;;5073325;28;19909;-64
2021/12/06 00:22:48;;;;;;;;;;;7.50;63.60;;;;;;5073450;28;20316;-65
2021/12/06 00:25:15;;;;;;;;;;;7.50;63.50;;;;;;5073568;28;20007;-65
2021/12/06 00:27:41;;;;;;;;;;;7.50;63.50;;;;;;5073341;28;19905;-65
2021/12/06 00:30:11;;;;;;;;;;;7.50;63.50;;;;;;5073389;28;20270;-65
2021/12/06 00:32:37;;;;;;;;;;;7.40;63.50;;;;;;5073289;28;19904;-65
2021/12/06 00:35:03;;;;;;;;;;;7.40;63.50;;;;;;5073233;28;19908;-66
2021/12/06 00:37:34;;;;;;;;;;;7.40;63.50;;;;;;5073030;28;19912;-65
2021/12/06 00:40:06;;;;;;;;;;;7.40;63.50;;;;;;5073387;28;19974;-65
2021/12/06 00:42:33;;;;;;;;;;;7.40;63.50;;;;;;5073212;28;20278;-65
2021/12/06 00:45:00;;;;;;;;;;;7.40;63.60;;;;;;5073173;28;19908;-65
2021/12/06 00:47:25;;;;;;;;;;;7.40;63.60;;;;;;5072984;28;19920;-65
2021/12/06 00:49:51;;;;;;;;;;;7.40;63.70;;;;;;5073082;28;19908;-65
2021/12/06 00:52:17;;;;;;;;;;;7.40;63.80;;;;;;5073063;28;20255;-65
2021/12/06 00:54:44;;;;;;;;;;;7.40;63.70;;;;;;5072987;28;19908;-65
2021/12/06 00:57:10;;;;;;;;;;;7.40;63.70;;;;;;5072115;28;19958;-66
2021/12/06 00:59:36;;;;;;;;;;;7.40;63.70;;;;;;5072963;28;19955;-65
2021/12/06 01:02:02;;;;;;;;;;;7.40;63.80;;;;;;5073025;28;19915;-65
2021/12/06 01:04:29;;;;;;;;;;;7.40;63.80;;;;;;5072992;28;20360;-65
2021/12/06 01:06:55;;;;;;;;;;;7.40;63.80;;;;;;5072901;28;19913;-65
2021/12/06 01:09:21;;;;;;;;;;;7.40;63.70;;;;;;5072859;28;19996;-65
2021/12/06 01:11:46;;;;;;;;;;;7.40;63.70;;;;;;5072861;28;19913;-66
2021/12/06 01:14:12;;;;;;;;;;;7.40;63.60;;;;;;5072780;28;19908;-65
2021/12/06 01:16:37;;;;;;;;;;;7.40;63.70;;;;;;5072639;28;20409;-65
2021/12/06 01:19:03;;;;;;;;;;;7.40;63.70;;;;;;5072792;28;19919;-65
2021/12/06 01:22:01;;;;;;;;;;;7.40;63.60;;;;;;5072904;28;19916;-65
2021/12/06 01:24:18;;;;;;;;;;;7.40;63.60;;;;;;5072279;28;19908;-65
2021/12/06 01:32:12;;;;;;;;;;;7.40;63.60;;;;;;5073042;28;19908;-65
2021/12/06 01:40:08;;;;;;;;;;;7.30;63.60;;;;;;5072640;28;19958;-65
2021/12/06 01:42:34;;;;;;;;;;;7.30;63.60;;;;;;5072564;28;19915;-66
2021/12/06 01:45:00;;;;;;;;;;;7.30;63.60;;;;;;5072601;28;19908;-66
2021/12/06 01:47:31;;;;;;;;;;;7.30;63.60;;;;;;5072439;28;19944;-65
2021/12/06 01:49:58;;;;;;;;;;;7.20;63.50;;;;;;5072555;28;20453;-65
2021/12/06 01:52:25;;;;;;;;;;;7.20;63.50;;;;;;5072519;28;19947;-65
2021/12/06 01:54:52;;;;;;;;;;;7.20;63.50;;;;;;5072506;28;19908;-65
2021/12/06 01:57:18;;;;;;;;;;;7.20;63.60;;;;;;5072362;28;19909;-65
2021/12/06 01:59:44;;;;;;;;;;;7.20;63.60;;;;;;5072474;28;19916;-65
2021/12/06 02:02:10;;;;;;;;;;;7.20;63.70;;;;;;5072310;28;19908;-65
2021/12/06 02:04:38;;;;;;;;;;;7.10;63.70;;;;;;5072201;28;19908;-65
2021/12/06 02:07:06;;;;;;;;;;;7.10;63.70;;;;;;5072249;28;19920;-65
2021/12/06 02:09:32;;;;;;;;;;;7.10;63.60;;;;;;5056399;28;19908;-65
2021/12/06 02:12:00;;;;;;;;;;;7.10;63.70;;;;;;5075746;28;19908;-65
2021/12/06 02:14:40;;;;;;;;;;;7.10;63.70;;;;;;5075676;28;20289;-65
2021/12/06 02:17:15;;;;;;;;;;;7.10;63.80;;;;;;5075481;28;20285;-65
2021/12/06 02:19:44;;;;;;;;;;;7.10;63.80;;;;;;5075658;28;20370;-65
2021/12/06 02:22:12;;;;;;;;;;;7.10;63.80;;;;;;5075559;28;19908;-65
2021/12/06 02:24:38;;;;;;;;;;;7.10;63.80;;;;;;5075446;28;19934;-65
2021/12/06 02:27:05;;;;;;;;;;;7.10;63.80;;;;;;5075482;28;19933;-65
2021/12/06 02:29:31;;;;;;;;;;;7.10;63.80;;;;;;5075405;28;20319;-65
2021/12/06 02:31:57;;;;;;;;;;;7.10;63.80;;;;;;5075404;28;19915;-65
2021/12/06 02:34:22;;;;;;;;;;;7.10;63.90;;;;;;5075443;28;19916;-65
2021/12/06 02:36:48;;;;;;;;;;;7.10;64.60;;;;;;5075244;28;19909;-65
2021/12/06 02:39:21;;;;;;;;;;;7.10;63.90;;;;;;5075190;28;20361;-65
2021/12/06 02:41:48;;;;;;;;;;;7.10;64.00;;;;;;5075235;28;20300;-65
2021/12/06 02:44:15;;;;;;;;;;;7.10;64.10;;;;;;5057226;28;19940;-65
2021/12/06 02:46:41;;;;;;;;;;;7.20;64.10;;;;;;5075189;28;19909;-65
2021/12/06 02:49:07;;;;;;;;;;;7.20;64.20;;;;;;5057108;28;20301;-65
2021/12/06 02:51:32;;;;;;;;;;;7.20;64.10;;;;;;5075079;28;19915;-65
2021/12/06 02:53:58;;;;;;;;;;;7.20;64.10;;;;;;5075053;28;19915;-65
2021/12/06 02:57:34;;;;;;;;;;;7.20;64.10;;;;;;5074935;28;19995;-65
2021/12/06 02:59:20;;;;;;;;;;;7.20;64.00;;;;;;5065414;28;19960;-65
2021/12/06 03:01:47;;;;;;;;;;;7.20;64.00;;;;;;5074848;28;19912;-66
2021/12/06 03:04:12;;;;;;;;;;;7.20;63.90;;;;;;5074765;28;19908;-65
2021/12/06 03:06:40;;;;;;;;;;;7.20;63.90;;;;;;5074778;28;20282;-65
2021/12/06 03:09:26;;;;;;;;;;;7.20;63.80;;;;;;5074768;28;19908;-65
2021/12/06 03:11:54;;;;;;;;;;;7.20;63.90;;;;;;5074014;28;19909;-65
2021/12/06 03:14:26;;;;;;;;;;;7.10;63.80;;;;;;5056800;28;19909;-65
2021/12/06 03:16:54;;;;;;;;;;;7.10;63.80;;;;;;5074376;28;20015;-65
2021/12/06 03:19:19;;;;;;;;;;;7.10;63.70;;;;;;5074490;28;19930;-65
2021/12/06 03:21:45;;;;;;;;;;;7.10;63.70;;;;;;5073628;28;19987;-65
2021/12/06 03:24:11;;;;;;;;;;;7.00;63.70;;;;;;5056527;28;19908;-65
2021/12/06 03:26:37;;;;;;;;;;;7.00;63.70;;;;;;5074313;28;20362;-65
2021/12/06 03:29:03;;;;;;;;;;;7.00;63.80;;;;;;5074351;28;20370;-65
2021/12/06 03:31:29;;;;;;;;;;;7.00;63.80;;;;;;5074201;28;19916;-65
2021/12/06 03:33:55;;;;;;;;;;;7.00;63.90;;;;;;5074344;28;20266;-65
2021/12/06 03:36:22;;;;;;;;;;;7.00;63.90;;;;;;5074175;28;19935;-65
2021/12/06 03:38:49;;;;;;;;;;;7.00;64.00;;;;;;5073873;28;20011;-65
2021/12/06 03:41:18;;;;;;;;;;;7.00;64.10;;;;;;5074128;28;19909;-65
2021/12/06 03:43:44;;;;;;;;;;;7.00;64.20;;;;;;5073892;28;19909;-65
2021/12/06 03:46:11;;;;;;;;;;;7.00;64.30;;;;;;5073933;28;19909;-65
2021/12/06 03:48:37;;;;;;;;;;;7.00;64.40;;;;;;5073944;28;19908;-65
2021/12/06 03:51:03;;;;;;;;;;;7.10;64.40;;;;;;5073895;28;19908;-65
2021/12/06 03:53:29;;;;;;;;;;;7.10;64.50;;;;;;5073852;28;20386;-65
2021/12/06 03:55:55;;;;;;;;;;;7.20;64.40;;;;;;5073794;28;19912;-65
2021/12/06 03:58:21;;;;;;;;;;;7.20;64.30;;;;;;5073631;28;20405;-65
2021/12/06 04:00:47;;;;;;;;;;;7.20;64.20;;;;;;5073654;28;19931;-65
2021/12/06 04:03:13;;;;;;;;;;;7.20;64.20;;;;;;5073670;28;20354;-66
2021/12/06 04:05:38;;;;;;;;;;;7.30;64.10;;;;;;5055701;28;20060;-65
2021/12/06 04:08:04;;;;;;;;;;;7.30;64.10;;;;;;5055633;28;19916;-65
2021/12/06 04:10:30;;;;;;;;;;;7.30;64.00;;;;;;5073307;28;19909;-65
2021/12/06 04:12:58;;;;;;;;;;;7.30;64.00;;;;;;5073359;28;19966;-65
2021/12/06 04:15:24;;;;;;;;;;;7.40;64.10;;;;;;5073206;28;19916;-65
2021/12/06 04:17:50;;;;;;;;;;;7.40;64.10;;;;;;5073317;28;19919;-65
2021/12/06 04:20:16;;;;;;;;;;;7.40;64.00;;;;;;5073367;28;20007;-65
2021/12/06 04:22:44;;;;;;;;;;;7.40;63.90;;;;;;5072382;28;20303;-65
2021/12/06 04:25:12;;;;;;;;;;;7.40;63.70;;;;;;5073322;28;19913;-65
2021/12/06 04:27:38;;;;;;;;;;;7.40;63.60;;;;;;5073212;28;20000;-65
2021/12/06 04:30:06;;;;;;;;;;;7.40;63.60;;;;;;5073238;28;19908;-65
2021/12/06 04:32:32;;;;;;;;;;;7.40;63.60;;;;;;5073097;28;19911;-65
2021/12/06 04:34:58;;;;;;;;;;;7.50;63.70;;;;;;5072991;28;19995;-65
2021/12/06 04:37:24;;;;;;;;;;;7.40;63.60;;;;;;5072864;28;19905;-65
2021/12/06 04:39:49;;;;;;;;;;;7.40;63.50;;;;;;5072934;28;19934;-66
2021/12/06 04:42:18;;;;;;;;;;;7.50;63.60;;;;;;5054955;28;19908;-65
2021/12/06 04:44:43;;;;;;;;;;;7.50;63.60;;;;;;5073171;28;19909;-65
2021/12/06 04:47:09;;;;;;;;;;;7.50;63.70;;;;;;5073053;28;20235;-65
2021/12/06 04:49:35;;;;;;;;;;;7.60;63.70;;;;;;5073040;28;19969;-65
2021/12/06 04:52:03;;;;;;;;;;;7.60;63.70;;;;;;5072929;28;20374;-65
2021/12/06 04:54:31;;;;;;;;;;;7.60;63.70;;;;;;5073034;28;19915;-65
2021/12/06 04:57:03;;;;;;;;;;;7.60;63.50;;;;;;5072784;28;19912;-65
2021/12/06 04:59:34;;;;;;;;;;;7.60;63.40;;;;;;5072907;28;19912;-65
2021/12/06 05:02:02;;;;;;;;;;;7.60;63.40;;;;;;5072901;28;20358;-65
2021/12/06 05:04:30;;;;;;;;;;;7.60;63.40;;;;;;5054592;28;19913;-65
2021/12/06 05:06:59;;;;;;;;;;;7.60;63.40;;;;;;5072405;28;20018;-66
2021/12/06 05:09:27;;;;;;;;;;;7.60;63.30;;;;;;5072291;28;19912;-65
2021/12/06 05:11:52;;;;;;;;;;;7.60;63.30;;;;;;5072380;28;19909;-66
2021/12/06 05:14:18;;;;;;;;;;;7.70;63.40;;;;;;5072726;28;20259;-65
2021/12/06 05:16:44;;;;;;;;;;;7.70;63.30;;;;;;5072027;28;19928;-65
2021/12/06 05:19:10;;;;;;;;;;;7.70;63.20;;;;;;5072027;28;19917;-65
2021/12/06 05:21:36;;;;;;;;;;;7.70;63.20;;;;;;5072338;28;20277;-65
2021/12/06 05:24:02;;;;;;;;;;;7.70;63.10;;;;;;5072330;28;19991;-65
2021/12/06 05:26:28;;;;;;;;;;;7.70;63.00;;;;;;5072481;28;19912;-65
2021/12/06 05:28:59;;;;;;;;;;;7.70;63.00;;;;;;5072372;28;20290;-65
2021/12/06 05:31:25;;;;;;;;;;;7.70;63.10;;;;;;5072221;28;20354;-66
2021/12/06 05:33:54;;;;;;;;;;;7.70;63.10;;;;;;5072374;28;20003;-65
2021/12/06 05:36:20;;;;;;;;;;;7.70;63.10;;;;;;5072195;28;20381;-66
2021/12/06 05:38:45;;;;;;;;;;;7.70;63.20;;;;;;5072050;28;20003;-66
2021/12/06 05:41:11;;;;;;;;;;;7.80;63.30;;;;;;5071986;28;19908;-65
2021/12/06 05:43:37;;;;;;;;;;;7.80;63.20;;;;;;5072995;28;19967;-65
2021/12/06 05:46:03;;;;;;;;;;;7.80;63.20;;;;;;5075873;28;19948;-65
2021/12/06 05:48:29;;;;;;;;;;;7.80;63.10;;;;;;5075851;28;19908;-65
2021/12/06 05:50:55;;;;;;;;;;;7.80;63.00;;;;;;5075804;28;19919;-65
2021/12/06 05:53:21;;;;;;;;;;;7.80;63.00;;;;;;5075824;28;19915;-65
2021/12/06 05:55:48;;;;;;;;;;;7.80;63.00;;;;;;5075676;28;19909;-65
2021/12/06 05:58:14;;;;;;;;;;;7.80;63.00;;;;;;5075485;28;20259;-65
2021/12/06 06:00:42;;;;;;;;;;;7.90;63.10;;;;;;5075566;28;19915;-65
2021/12/06 06:03:07;;;;;;;;;;;7.80;63.00;;;;;;5075581;28;19908;-68
2021/12/06 06:05:34;;;;;;;;;;;7.80;63.10;;;;;;5075713;28;20406;-65
2021/12/06 06:08:00;;;;;;;;;;;7.90;63.10;;;;;;5075410;28;20278;-66
2021/12/06 06:10:26;;;;;;;;;;;7.90;63.10;;;;;;5075523;28;19961;-66
2021/12/06 06:12:52;;;;;;;;;;;7.90;63.00;;;;;;5075356;28;20422;-65
2021/12/06 06:15:18;;;;;;;;;;;7.90;62.90;;;;;;5057126;28;19916;-65
2021/12/06 06:17:44;;;;;;;;;;;7.90;63.00;;;;;;5075172;28;20271;-65
2021/12/06 06:20:12;;;;;;;;;;;7.90;62.90;;;;;;5074974;28;19908;-65
2021/12/06 06:22:38;;;;;;;;;;;7.90;63.00;;;;;;5075281;28;19904;-65
2021/12/06 06:25:04;;;;;;;;;;;7.90;62.80;;;;;;5057384;28;19978;-65
2021/12/06 06:27:30;;;;;;;;;;;7.90;62.80;;;;;;5075202;28;19905;-65
2021/12/06 06:29:55;;;;;;;;;;;7.90;62.70;;;;;;5075118;28;19954;-65
2021/12/06 06:32:21;;;;;;;;;;;7.90;62.70;;;;;;5074916;28;19909;-64
2021/12/06 06:34:47;;;;;;;;;;;7.80;62.60;;;;;;5056930;28;19909;-65
2021/12/06 06:37:12;;;;;;;;;;;7.80;62.60;;;;;;5074973;28;19908;-64
2021/12/06 06:39:38;;;;;;;;;;;7.80;62.60;;;;;;5074702;28;19909;-64
2021/12/06 06:42:04;;;;;;;;;;;7.80;62.60;;;;;;5057031;28;20358;-64
2021/12/06 06:44:29;;;;;;;;;;;7.80;62.50;;;;;;5074886;28;19920;-64
2021/12/06 06:46:55;;;;;;;;;;;7.70;62.40;;;;;;5074890;28;20007;-64
2021/12/06 06:49:21;;;;;;;;;;;7.70;62.50;;;;;;5074907;28;19957;-64
2021/12/06 06:51:47;;;;;;;;;;;7.70;62.60;;;;;;5056781;28;20396;-64
2021/12/06 06:54:13;;;;;;;;;;;7.60;62.50;;;;;;5074695;28;19971;-64
2021/12/06 06:56:38;;;;;;;;;;;7.60;62.50;;;;;;5073658;28;19908;-63
2021/12/06 06:59:04;;;;;;;;;;;7.60;62.60;;;;;;5074500;28;19912;-64
2021/12/06 07:01:30;;;;;;;;;;;7.60;62.60;;;;;;5074634;28;20027;-66
2021/12/06 07:03:55;;;;;;;;;;;7.50;62.50;;;;;;5074503;28;19958;-65
2021/12/06 07:06:22;;;;;;;;;;;7.60;62.60;;;;;;5056550;28;19915;-64
2021/12/06 07:08:49;;;;;;;;;;;7.50;62.60;;;;;;5075142;28;19919;-65
2021/12/06 07:11:14;;;;;;;;;;;7.50;62.70;;;;;;5074405;28;19909;-65
2021/12/06 07:13:40;;;;;;;;;;;7.50;62.70;;;;;;5074389;28;19909;-65
2021/12/06 07:16:07;;;;;;;;;;;7.50;62.70;;;;;;5074082;28;19921;-65
2021/12/06 07:18:33;;;;;;;;;;;7.50;62.70;;;;;;5074258;28;20313;-65
2021/12/06 07:20:59;;;;;;;;;;;7.50;62.70;;;;;;5056636;28;19908;-64
2021/12/06 07:23:24;;;;;;;;;;;7.50;62.70;;;;;;5074159;28;19947;-64
2021/12/06 07:25:50;;;;;;;;;;;7.50;62.80;;;;;;5074099;28;19940;-65
2021/12/06 07:28:15;;;;;;;;;;;7.40;62.60;;;;;;5073898;28;19908;-64
2021/12/06 07:30:41;;;;;;;;;;;7.40;62.70;;;;;;5073956;28;19943;-65
2021/12/06 07:33:07;;;;;;;;;;;7.40;62.80;;;;;;5073874;28;19961;-65
2021/12/06 07:35:33;;;;;;;;;;;7.40;62.80;;;;;;5074008;28;19916;-65
2021/12/06 07:38:00;;;;;;;;;;;7.40;62.80;;;;;;5073635;28;19912;-65
2021/12/06 07:40:27;;;;;;;;;;;7.40;62.80;;;;;;5055917;28;19909;-65
2021/12/06 07:42:52;;;;;;;;;;;7.50;62.80;;;;;;5073855;28;19975;-65
2021/12/06 07:45:18;;;;;;;;;;;7.50;62.90;;;;;;5073756;28;19916;-65
2021/12/06 07:47:47;;;;;;;;;;;7.50;62.90;;;;;;5073733;28;19908;-65
2021/12/06 07:50:14;;;;;;;;;;;7.50;62.90;;;;;;5073696;28;19931;-65
2021/12/06 07:52:41;;;;;;;;;;;7.50;62.90;;;;;;5073684;28;19915;-65
2021/12/06 07:55:08;;;;;;;;;;;7.50;62.90;;;;;;5073596;28;20254;-65
2021/12/06 07:57:34;;;;;;;;;;;7.50;62.90;;;;;;5073503;28;19917;-65
2021/12/06 08:00:01;;;;;;;;;;;7.50;62.80;;;;;;5073563;28;19908;-65
2021/12/06 08:02:26;;;;;;;;;;;7.50;62.80;;;;;;5073467;28;19909;-65
2021/12/06 08:07:50;;;;;;;;;;;7.60;62.90;;;;;;4991571;28;20334;-65
2021/12/06 08:10:16;;;;;;;;;;;7.60;63.00;;;;;;4992076;28;20012;-65
2021/12/06 08:12:41;;;;;;;;;;;7.60;63.00;;;;;;4991779;28;19964;-65
2021/12/06 08:15:08;;;;;;;;;;;7.70;63.10;;;;;;4991940;28;20291;-65
2021/12/06 08:17:34;;;;;;;;;;;7.70;63.10;;;;;;4991860;28;19918;-65
2021/12/06 08:19:59;;;;;;;;;;;7.80;63.10;;;;;;4991845;28;19972;-65
2021/12/06 08:22:25;;;;;;;;;;;7.80;63.00;;;;;;4991786;28;19926;-65
2021/12/06 08:24:51;;;;;;;;;;;7.90;63.00;;;;;;4991750;28;19910;-65
2021/12/06 08:27:16;;;;;;;;;;;7.90;62.90;;;;;;4991752;28;20320;-66
2021/12/06 08:29:43;;;;;;;;;;;8.00;62.90;;;;;;4991602;28;20048;-65
2021/12/06 08:32:10;;;;;;;;;;;8.00;62.90;;;;;;4991673;28;19990;-65
2021/12/06 08:34:35;;;;;;;;;;;8.10;62.90;;;;;;4991625;28;19917;-65
2021/12/06 08:37:01;;;;;;;;;;;8.10;62.80;;;;;;4991737;28;19910;-66
2021/12/06 08:39:27;;;;;;;;;;;8.20;62.80;;;;;;4991810;28;20387;-66
2021/12/06 08:41:53;;;;;;;;;;;8.20;62.70;;;;;;4975686;28;19914;-65
2021/12/06 08:44:18;;;;;;;;;;;8.30;62.60;;;;;;5062522;28;19909;-65
2021/12/06 08:46:44;;;;;;;;;;;8.30;62.30;;;;;;5073259;28;19915;-65
2021/12/06 08:49:10;;;;;;;;;;;8.40;62.20;;;;;;5072941;28;19973;-65
2021/12/06 08:51:44;;;;;;;;;;;8.40;62.00;;;;;;5072894;28;19908;-65
2021/12/06 08:54:12;;;;;;;;;;;8.40;61.70;;;;;;5072820;28;20312;-64
2021/12/06 08:56:38;;;;;;;;;;;8.40;61.70;;;;;;5072807;28;19908;-65
2021/12/06 08:59:05;;;;;;;;;;;8.50;61.80;;;;;;5072479;28;19995;-65
2021/12/06 09:01:30;;;;;;;;;;;8.50;61.80;;;;;;5054569;28;19913;-65
2021/12/06 09:03:56;;;;;;;;;;;8.50;61.70;;;;;;5072527;28;19909;-65
2021/12/06 09:06:22;;;;;;;;;;;8.50;61.60;;;;;;5054588;28;19939;-64
2021/12/06 09:08:48;;;;;;;;;;;8.50;61.50;;;;;;5072621;28;19908;-65
2021/12/06 09:11:13;;;;;;;;;;;8.50;61.40;;;;;;5071293;28;19912;-65
2021/12/06 09:13:40;;;;;;;;;;;8.50;61.10;;;;;;5072619;28;19909;-65
2021/12/06 09:16:06;;;;;;;;;;;8.50;60.90;;;;;;5072208;28;19921;-64
2021/12/06 09:18:34;;;;;;;;;;;8.50;60.90;;;;;;5073108;28;19982;-65
2021/12/06 09:21:04;;;;;;;;;;;8.50;60.90;;;;;;5076408;28;19908;-65
2021/12/06 09:23:30;;;;;;;;;;;8.50;61.00;;;;;;5076158;28;19962;-65
2021/12/06 09:25:55;;;;;;;;;;;8.50;61.00;;;;;;5076368;28;19913;-65
2021/12/06 09:28:21;;;;;;;;;;;8.50;61.10;;;;;;5076367;28;20281;-65
2021/12/06 09:30:47;;;;;;;;;;;8.50;61.20;;;;;;5058423;28;20358;-64
2021/12/06 09:33:14;;;;;;;;;;;8.60;61.40;;;;;;5058478;28;20415;-65
2021/12/06 09:35:41;;;;;;;;;;;8.70;61.30;;;;;;5064205;28;19915;-65
2021/12/06 09:38:08;;;;;;;;;;;8.70;61.30;;;;;;5038367;28;19940;-65
2021/12/06 09:40:35;;;;;;;;;;;8.80;61.20;;;;;;5056236;28;19909;-65
2021/12/06 09:43:01;;;;;;;;;;;8.80;61.00;;;;;;5056415;28;19916;-65
2021/12/06 09:45:28;;;;;;;;;;;8.80;60.80;;;;;;5038119;28;20371;-65
2021/12/06 09:47:54;;;;;;;;;;;8.90;60.90;;;;;;5055871;28;19908;-65
2021/12/06 09:50:24;;;;;;;;;;;8.90;60.90;;;;;;5055962;28;19916;-65
2021/12/06 09:52:50;;;;;;;;;;;9.00;60.80;;;;;;5055904;28;20501;-65
2021/12/06 09:55:16;;;;;;;;;;;9.10;60.60;;;;;;5055877;28;19916;-65
2021/12/06 09:57:42;;;;;;;;;;;9.10;60.30;;;;;;5055814;28;19912;-65
2021/12/06 10:00:09;;;;;;;;;;;9.20;60.30;;;;;;5055698;28;19909;-65
2021/12/06 10:02:34;;;;;;;;;;;9.30;60.30;;;;;;5055656;28;19909;-65
2021/12/06 10:05:00;;;;;;;;;;;9.30;60.10;;;;;;5055526;28;19909;-65
2021/12/06 10:07:26;;;;;;;;;;;9.40;60.10;;;;;;5055517;28;19988;-65
2021/12/06 10:09:53;;;;;;;;;;;9.50;59.80;;;;;;5055648;28;19909;-65
2021/12/06 10:12:19;;;;;;;;;;;9.50;59.50;;;;;;5055655;28;20363;-65
2021/12/06 10:14:45;;;;;;;;;;;9.50;59.40;;;;;;5055906;28;19905;-65
2021/12/06 10:17:12;;;;;;;;;;;9.40;59.00;;;;;;5055528;28;19943;-65
2021/12/06 10:19:38;;;;;;;;;;;9.40;58.90;;;;;;5055503;28;19913;-65
2021/12/06 10:22:04;;;;;;;;;;;9.40;59.10;;;;;;5055306;28;20278;-65
2021/12/06 10:24:30;;;;;;;;;;;9.40;59.00;;;;;;5055304;28;19915;-65
2021/12/06 10:27:07;;;;;;;;;;;9.40;58.80;;;;;;5055240;28;19908;-65
2021/12/06 10:29:39;;;;;;;;;;;9.40;58.60;;;;;;5054958;28;19999;-65
2021/12/06 10:32:10;;;;;;;;;;;9.40;58.70;;;;;;5055190;28;19909;-65
2021/12/06 10:34:36;;;;;;;;;;;9.40;58.70;;;;;;5069764;28;19909;-64
2021/12/06 10:37:01;;;;;;;;;;;9.30;58.60;;;;;;5075107;28;19954;-65
2021/12/06 10:39:34;;;;;;;;;;;9.40;58.70;;;;;;5074956;28;20219;-65
2021/12/06 10:42:01;;;;;;;;;;;9.30;58.60;;;;;;5075128;28;19909;-65
2021/12/06 10:44:27;;;;;;;;;;;9.40;58.70;;;;;;5056929;28;19916;-65
2021/12/06 10:46:52;;;;;;;;;;;9.40;59.20;;;;;;5074932;28;19908;-65
2021/12/06 10:49:21;;;;;;;;;;;9.40;58.60;;;;;;5057050;28;19908;-64
2021/12/06 10:51:48;;;;;;;;;;;9.40;58.50;;;;;;5074887;28;19915;-65
2021/12/06 10:54:20;;;;;;;;;;;9.50;58.50;;;;;;5074676;28;19913;-65
2021/12/06 10:56:48;;;;;;;;;;;9.50;58.60;;;;;;5074803;28;19915;-65
2021/12/06 10:59:21;;;;;;;;;;;9.50;58.60;;;;;;5074940;28;19919;-65
2021/12/06 11:01:48;;;;;;;;;;;9.60;58.50;;;;;;5056632;28;19908;-65
2021/12/06 11:04:16;;;;;;;;;;;9.60;58.20;;;;;;5074455;28;19915;-65
2021/12/06 11:06:44;;;;;;;;;;;9.60;58.20;;;;;;5074654;28;19909;-65
2021/12/06 11:09:15;;;;;;;;;;;9.60;58.20;;;;;;5074729;28;19935;-65
2021/12/06 11:11:42;;;;;;;;;;;9.60;58.90;;;;;;5074753;28;20354;-66
2021/12/06 11:14:11;;;;;;;;;;;9.70;58.50;;;;;;5074556;28;19932;-65
2021/12/06 11:16:39;;;;;;;;;;;9.70;58.40;;;;;;5074121;28;19921;-66
2021/12/06 11:19:06;;;;;;;;;;;9.60;58.20;;;;;;5074369;28;19920;-66
2021/12/06 11:21:36;;;;;;;;;;;9.60;58.00;;;;;;5074302;28;19908;-65
2021/12/06 11:24:08;;;;;;;;;;;9.50;57.80;;;;;;5074260;28;19915;-65
2021/12/06 11:26:35;;;;;;;;;;;9.50;57.90;;;;;;5056421;28;19909;-65
2021/12/06 11:29:24;;;;;;;;;;;9.50;58.00;;;;;;5074297;28;19915;-66
2021/12/06 11:31:51;;;;;;;;;;;9.50;58.00;;;;;;5068336;28;19909;-65
2021/12/06 11:34:17;;;;;;;;;;;9.40;57.90;;;;;;5056420;28;20281;-66
2021/12/06 11:36:43;;;;;;;;;;;9.40;58.00;;;;;;5074170;28;20007;-66
2021/12/06 11:39:14;;;;;;;;;;;9.40;58.20;;;;;;5055972;28;19912;-66
2021/12/06 11:41:42;;;;;;;;;;;9.50;58.00;;;;;;5073361;28;19934;-66
2021/12/06 11:44:17;;;;;;;;;;;9.50;57.80;;;;;;5073929;28;19916;-65
2021/12/06 11:46:43;;;;;;;;;;;9.50;57.80;;;;;;5073754;28;19932;-65
2021/12/06 11:49:18;;;;;;;;;;;9.50;57.90;;;;;;5073819;28;19908;-65
2021/12/06 11:51:44;;;;;;;;;;;9.60;58.00;;;;;;5073526;28;19931;-65
2021/12/06 11:54:09;;;;;;;;;;;9.60;57.90;;;;;;5073549;28;20417;-65
2021/12/06 11:56:44;;;;;;;;;;;9.70;57.90;;;;;;5073530;28;19999;-65
2021/12/06 11:59:11;;;;;;;;;;;9.70;57.90;;;;;;5073515;28;20282;-65
2021/12/06 12:01:38;;;;;;;;;;;9.80;57.90;;;;;;5073412;28;19958;-65
2021/12/06 12:04:12;;;;;;;;;;;9.80;57.60;;;;;;5055494;28;19909;-65
2021/12/06 12:06:40;;;;;;;;;;;9.90;57.60;;;;;;5073259;28;20277;-65
2021/12/06 12:09:08;;;;;;;;;;;9.90;57.50;;;;;;5073431;28;19932;-65
2021/12/06 12:11:52;;;;;;;;;;;9.90;57.20;;;;;;5073339;28;19916;-65
2021/12/06 12:14:23;;;;;;;;;;;9.90;57.00;;;;;;5073287;28;19992;-65
2021/12/06 12:16:49;;;;;;;;;;;9.80;57.00;;;;;;5073051;28;19921;-65
2021/12/06 12:19:15;;;;;;;;;;;9.80;56.90;;;;;;5073093;28;20002;-65
2021/12/06 12:21:40;;;;;;;;;;;9.80;57.00;;;;;;5073126;28;19944;-65
2021/12/06 12:24:06;;;;;;;;;;;9.80;57.00;;;;;;5073185;28;20378;-66
2021/12/06 12:26:32;;;;;;;;;;;9.80;56.90;;;;;;5073164;28;19915;-65
2021/12/06 12:29:01;;;;;;;;;;;9.90;57.00;;;;;;5073183;28;19909;-66
2021/12/06 12:31:28;;;;;;;;;;;9.90;56.90;;;;;;5072990;28;19954;-66
2021/12/06 12:33:57;;;;;;;;;;;9.90;56.60;;;;;;5073008;28;19999;-66
2021/12/06 12:36:24;;;;;;;;;;;9.80;56.40;;;;;;5072999;28;19905;-66
2021/12/06 12:38:54;;;;;;;;;;;9.80;56.30;;;;;;5072946;28;19942;-65
2021/12/06 12:41:20;;;;;;;;;;;9.70;56.20;;;;;;5072977;28;19970;-64
2021/12/06 12:43:47;;;;;;;;;;;9.70;56.20;;;;;;5072939;28;19909;-64
2021/12/06 12:46:13;;;;;;;;;;;9.70;56.20;;;;;;5073230;28;20370;-64
2021/12/06 12:48:47;;;;;;;;;;;9.70;56.20;;;;;;5073170;28;19915;-65
2021/12/06 12:51:15;;;;;;;;;;;9.60;56.20;;;;;;5073143;28;19912;-64
2021/12/06 12:53:43;;;;;;;;;;;9.50;56.00;;;;;;5072695;28;19915;-64
2021/12/06 12:56:19;;;;;;;;;;;9.50;56.10;;;;;;5072654;28;19908;-65
2021/12/06 12:58:44;;;;;;;;;;;9.50;56.00;;;;;;5072752;28;19913;-65
2021/12/06 13:01:12;;;;;;;;;;;9.40;55.90;;;;;;5072594;28;20263;-65
2021/12/06 13:03:51;;;;;;;;;;;9.40;56.10;;;;;;5072552;28;19979;-65
2021/12/06 13:06:28;;;;;;;;;;;9.30;56.00;;;;;;5072550;28;19919;-64
2021/12/06 13:08:56;;;;;;;;;;;9.30;56.00;;;;;;5072581;28;19908;-65
2021/12/06 13:11:23;;;;;;;;;;;9.30;56.10;;;;;;5072560;28;19941;-64
2021/12/06 13:13:50;;;;;;;;;;;9.30;56.10;;;;;;5072577;28;19909;-64
2021/12/06 13:16:33;;;;;;;;;;;9.20;56.10;;;;;;5072370;28;19974;-64
2021/12/06 13:19:12;;;;;;;;;;;9.30;56.10;;;;;;5072489;28;19913;-65
2021/12/06 13:21:59;;;;;;;;;;;9.30;56.10;;;;;;5072524;28;19908;-64
2021/12/06 13:24:27;;;;;;;;;;;9.30;56.00;;;;;;5072392;28;19913;-65
2021/12/06 13:26:55;;;;;;;;;;;9.30;55.90;;;;;;5072407;28;19951;-65
2021/12/06 13:29:23;;;;;;;;;;;9.30;55.70;;;;;;5054266;28;19913;-64
2021/12/06 13:31:50;;;;;;;;;;;9.30;55.70;;;;;;5072272;28;19909;-64
2021/12/06 13:34:20;;;;;;;;;;;9.20;55.50;;;;;;5072329;28;19912;-65
2021/12/06 13:36:48;;;;;;;;;;;9.20;55.50;;;;;;5072272;28;19909;-64
2021/12/06 13:39:29;;;;;;;;;;;9.20;55.60;;;;;;5072489;28;19912;-64
2021/12/06 13:41:55;;;;;;;;;;;9.20;55.70;;;;;;5072338;28;19912;-64
2021/12/06 13:44:22;;;;;;;;;;;9.20;55.70;;;;;;5072177;28;19905;-64
2021/12/06 13:46:51;;;;;;;;;;;9.20;55.60;;;;;;5054094;28;20393;-64
2021/12/06 13:49:18;;;;;;;;;;;9.20;55.40;;;;;;5072158;28;19912;-64
2021/12/06 13:51:55;;;;;;;;;;;9.10;55.30;;;;;;5054249;28;19909;-64
2021/12/06 13:54:26;;;;;;;;;;;9.10;55.20;;;;;;5072166;28;19905;-65
2021/12/06 13:56:54;;;;;;;;;;;9.10;55.00;;;;;;5072024;28;19934;-65
2021/12/06 13:59:24;;;;;;;;;;;9.00;54.90;;;;;;5071870;28;19935;-64
2021/12/06 14:01:50;;;;;;;;;;;8.90;55.10;;;;;;5071937;28;19916;-65
2021/12/06 14:04:18;;;;;;;;;;;8.90;55.10;;;;;;5072098;28;20409;-65
2021/12/06 14:06:54;;;;;;;;;;;8.80;55.00;;;;;;5075587;28;19915;-64
2021/12/06 14:09:31;;;;;;;;;;;8.80;55.10;;;;;;5075508;28;19904;-64
2021/12/06 14:12:03;;;;;;;;;;;8.70;55.00;;;;;;5075559;28;19915;-64
2021/12/06 14:14:30;;;;;;;;;;;8.70;55.20;;;;;;5075336;28;20378;-65
2021/12/06 14:16:57;;;;;;;;;;;8.60;55.20;;;;;;5054081;28;19921;-64
2021/12/06 14:19:24;;;;;;;;;;;8.60;55.20;;;;;;5053988;28;19919;-65
2021/12/06 14:21:51;;;;;;;;;;;8.50;55.20;;;;;;5054135;28;19940;-64
2021/12/06 14:24:16;;;;;;;;;;;8.40;55.20;;;;;;5055210;28;19905;-64
2021/12/06 14:26:44;;;;;;;;;;;8.40;55.20;;;;;;5055399;28;19909;-64
2021/12/06 14:29:17;;;;;;;;;;;8.30;55.20;;;;;;5055279;28;19905;-64
2021/12/06 14:31:43;;;;;;;;;;;8.20;55.20;;;;;;5055314;28;19955;-64
2021/12/06 14:34:09;;;;;;;;;;;8.20;55.30;;;;;;5055191;28;20397;-65
2021/12/06 14:36:35;;;;;;;;;;;8.10;55.30;;;;;;5055443;28;20281;-64
2021/12/06 14:39:27;;;;;;;;;;;8.10;55.40;;;;;;5053960;28;19913;-65
2021/12/06 14:41:56;;;;;;;;;;;8.10;55.50;;;;;;5052741;28;19909;-66
2021/12/06 14:44:40;;;;;;;;;;;8.10;55.60;;;;;;5055292;28;19913;-66
2021/12/06 14:47:07;;;;;;;;;;;8.00;55.60;;;;;;5055282;28;20321;-65